Terminal Aerodrome Forecast
Issued by NWS Twin Cities, MN

Home | Current Version | Previous Version | Graphics & Text | Print | Product List | Glossary On
Versions: 1 2 3 4 5 6 7 8 9 10 11 12 13 14 15 16 17 18
000
FTUS43 KMPX 261120
TAFEAU
TAF
KEAU 261120Z 2612/2712 VRB02KT 1 1/2SM BR SCT002
      TEMPO 2612/2613 1/2SM FG BKN002
     FM261330 35004KT P6SM FEW025
     FM261700 32006KT P6SM SKC
     FM270000 VRB02KT P6SM SKC
     FM270900 00000KT 3/4SM BR SCT002=

USA.gov is the U.S. government's official web portal to all federal, state and local government web resources and services.